createdAt,value
2022-10-29T00:00:53.973Z,11.30
2022-10-29T00:03:23.544Z,11.30
2022-10-29T00:06:00.184Z,11.20
2022-10-29T00:08:29.716Z,11.20
2022-10-29T00:11:07.301Z,11.10
2022-10-29T00:13:36.020Z,11.00
2022-10-29T00:16:06.575Z,11.00
2022-10-29T00:18:34.613Z,11.00
2022-10-29T00:21:03.761Z,11.00
2022-10-29T00:23:31.771Z,10.90
2022-10-29T00:26:03.508Z,10.90
2022-10-29T00:28:32.159Z,11.00
2022-10-29T00:31:03.660Z,11.00
2022-10-29T00:33:31.752Z,11.00
2022-10-29T00:36:01.098Z,10.90
2022-10-29T00:38:29.263Z,11.00
2022-10-29T00:40:57.298Z,10.90
2022-10-29T00:43:27.997Z,10.90
2022-10-29T00:45:58.822Z,10.90
2022-10-29T00:48:28.628Z,10.90
2022-10-29T00:50:58.917Z,10.90
2022-10-29T00:53:30.112Z,10.90
2022-10-29T00:55:59.302Z,11.00
2022-10-29T00:58:29.705Z,11.10
2022-10-29T01:00:57.780Z,11.10
2022-10-29T01:03:25.836Z,11.00
2022-10-29T01:05:54.978Z,11.00
2022-10-29T01:08:23.636Z,11.00
2022-10-29T01:10:58.282Z,11.00
2022-10-29T01:13:39.310Z,11.00
2022-10-29T01:16:18.534Z,11.00
2022-10-29T01:18:54.305Z,10.90
2022-10-29T01:21:42.563Z,11.00
2022-10-29T01:24:49.687Z,11.00
2022-10-29T01:27:59.370Z,11.00
2022-10-29T01:31:00.586Z,10.90
2022-10-29T01:33:35.616Z,10.80
2022-10-29T01:36:09.643Z,10.80
2022-10-29T01:38:41.530Z,10.80
2022-10-29T01:41:15.935Z,10.80
2022-10-29T01:43:50.761Z,10.70
2022-10-29T01:46:23.765Z,10.70
2022-10-29T01:48:57.363Z,10.80
2022-10-29T01:51:32.260Z,10.80
2022-10-29T01:54:03.088Z,10.70
2022-10-29T01:56:31.202Z,10.60
2022-10-29T01:59:01.146Z,10.60
2022-10-29T02:01:40.874Z,10.50
2022-10-29T02:04:25.962Z,10.50
2022-10-29T02:07:02.000Z,10.50
2022-10-29T02:09:35.390Z,10.50
2022-10-29T02:12:09.688Z,10.60
2022-10-29T02:14:40.967Z,10.60
2022-10-29T02:17:09.253Z,10.60
2022-10-29T02:19:38.762Z,10.60
2022-10-29T02:22:06.751Z,10.50
2022-10-29T02:24:34.780Z,10.50
2022-10-29T02:27:02.835Z,10.50
2022-10-29T02:29:30.871Z,10.50
2022-10-29T02:31:58.927Z,10.50
2022-10-29T02:34:27.058Z,10.40
2022-10-29T02:36:56.379Z,10.50
2022-10-29T02:39:24.512Z,10.50
2022-10-29T02:41:52.522Z,10.50
2022-10-29T02:44:20.498Z,10.40
2022-10-29T02:46:48.527Z,10.30
2022-10-29T02:49:16.541Z,10.30
2022-10-29T02:51:44.603Z,10.30
2022-10-29T02:54:13.961Z,10.40
2022-10-29T02:56:41.936Z,10.30
2022-10-29T02:59:11.907Z,10.30
2022-10-29T03:01:40.361Z,10.30
2022-10-29T03:04:08.463Z,10.30
2022-10-29T03:06:36.446Z,10.30
2022-10-29T03:09:04.636Z,10.30
2022-10-29T03:11:33.999Z,10.30
2022-10-29T03:14:01.992Z,10.20
2022-10-29T03:16:30.064Z,10.20
2022-10-29T03:18:58.064Z,10.20
2022-10-29T03:21:26.065Z,10.10
2022-10-29T03:23:54.337Z,10.20
2022-10-29T03:26:22.290Z,10.00
2022-10-29T03:28:51.699Z,9.90
2022-10-29T03:31:19.698Z,10.00
2022-10-29T03:33:47.761Z,9.80
2022-10-29T03:36:15.822Z,9.80
2022-10-29T03:38:44.145Z,9.80
2022-10-29T03:41:12.078Z,9.70
2022-10-29T03:43:41.048Z,9.70
2022-10-29T03:46:10.438Z,9.70
2022-10-29T03:48:38.519Z,9.70
2022-10-29T03:51:07.721Z,9.70
2022-10-29T03:53:36.879Z,9.60
2022-10-29T03:56:06.563Z,9.60
2022-10-29T03:58:34.632Z,9.60
2022-10-29T04:01:04.479Z,9.60
2022-10-29T04:03:35.365Z,9.60
2022-10-29T04:06:09.404Z,9.60
2022-10-29T04:08:37.578Z,9.50
2022-10-29T04:11:06.297Z,9.50
2022-10-29T04:13:34.330Z,9.50
2022-10-29T04:16:03.167Z,9.50
2022-10-29T04:18:31.224Z,9.50
2022-10-29T04:23:01.955Z,9.50
2022-10-29T04:29:27.510Z,9.50
2022-10-29T04:31:55.522Z,9.50
2022-10-29T04:34:23.489Z,9.50
2022-10-29T04:36:54.043Z,9.50
2022-10-29T04:39:23.462Z,9.50
2022-10-29T04:41:51.674Z,9.50
2022-10-29T04:44:19.983Z,9.40
2022-10-29T04:46:48.236Z,9.40
2022-10-29T04:49:16.359Z,9.40
2022-10-29T04:51:44.545Z,9.40
2022-10-29T04:54:13.944Z,9.50
2022-10-29T04:56:41.943Z,9.50
2022-10-29T04:59:10.016Z,9.50
2022-10-29T05:01:37.993Z,9.60
2022-10-29T05:04:06.290Z,9.60
2022-10-29T05:06:34.265Z,9.60
2022-10-29T05:09:02.396Z,9.70
2022-10-29T05:11:31.780Z,9.70
2022-10-29T05:13:59.824Z,9.70
2022-10-29T05:16:27.782Z,9.80
2022-10-29T05:18:55.793Z,9.80
2022-10-29T05:21:23.761Z,9.70
2022-10-29T05:23:51.771Z,9.80
2022-10-29T05:26:19.745Z,9.80
2022-10-29T05:28:52.212Z,9.90
2022-10-29T05:31:20.450Z,9.90
2022-10-29T05:33:50.010Z,9.90
2022-10-29T05:36:20.438Z,9.90
2022-10-29T05:38:48.518Z,10.00
2022-10-29T05:41:16.577Z,10.10
2022-10-29T05:43:44.587Z,10.00
2022-10-29T05:46:13.910Z,10.10
2022-10-29T05:48:41.874Z,10.10
2022-10-29T05:51:10.518Z,10.10
2022-10-29T05:53:38.514Z,10.10
2022-10-29T05:56:07.758Z,10.20
2022-10-29T05:58:35.812Z,10.20
2022-10-29T06:01:07.330Z,10.20
2022-10-29T06:03:37.485Z,10.30
2022-10-29T06:06:05.737Z,10.20
2022-10-29T06:08:33.906Z,10.20
2022-10-29T06:11:03.257Z,10.30
2022-10-29T06:13:31.562Z,10.30
2022-10-29T06:16:01.165Z,10.30
2022-10-29T06:18:30.079Z,10.30
2022-10-29T06:21:01.232Z,10.40
2022-10-29T06:23:30.199Z,10.40
2022-10-29T06:26:00.016Z,10.50
2022-10-29T06:28:33.709Z,10.50
2022-10-29T06:31:03.128Z,10.50
2022-10-29T06:33:31.166Z,10.50
2022-10-29T06:36:01.288Z,10.50
2022-10-29T06:38:29.319Z,10.60
2022-10-29T06:40:57.329Z,10.60
2022-10-29T06:43:25.390Z,10.60
2022-10-29T06:45:53.446Z,10.60
2022-10-29T06:48:22.666Z,10.70
2022-10-29T06:50:51.339Z,10.70
2022-10-29T06:53:20.915Z,10.80
2022-10-29T06:55:49.161Z,10.80
2022-10-29T06:58:19.959Z,10.90
2022-10-29T07:00:49.028Z,11.00
2022-10-29T07:03:18.429Z,11.00
2022-10-29T07:05:47.038Z,11.00
2022-10-29T07:08:15.100Z,11.10
2022-10-29T07:10:44.937Z,11.20
2022-10-29T07:13:12.954Z,11.20
2022-10-29T07:15:41.033Z,11.30
2022-10-29T07:18:09.810Z,11.40
2022-10-29T07:20:40.257Z,11.60
2022-10-29T07:23:09.102Z,11.50
2022-10-29T07:25:38.660Z,11.60
2022-10-29T07:28:11.413Z,11.60
2022-10-29T07:30:39.491Z,11.70
2022-10-29T07:33:07.915Z,11.70
2022-10-29T07:35:36.327Z,11.70
2022-10-29T07:38:09.186Z,11.80
2022-10-29T07:40:39.603Z,11.90
2022-10-29T07:43:10.031Z,12.00
2022-10-29T07:45:38.115Z,12.00
2022-10-29T07:48:08.441Z,12.10
2022-10-29T07:50:37.544Z,12.10
2022-10-29T07:53:07.365Z,12.20
2022-10-29T07:55:35.691Z,12.30
2022-10-29T07:58:05.985Z,12.30
2022-10-29T08:00:37.335Z,12.40
2022-10-29T08:03:06.102Z,12.50
2022-10-29T08:05:34.112Z,12.60
2022-10-29T08:08:02.135Z,12.60
2022-10-29T08:10:31.375Z,12.80
2022-10-29T08:13:01.694Z,12.80
2022-10-29T08:15:31.859Z,13.00
2022-10-29T08:18:01.576Z,13.10
2022-10-29T08:20:30.392Z,13.20
2022-10-29T08:23:01.357Z,13.30
2022-10-29T08:25:30.397Z,13.50
2022-10-29T08:28:03.230Z,13.60
2022-10-29T08:30:31.811Z,13.70
2022-10-29T08:33:01.909Z,13.80
2022-10-29T08:35:30.624Z,13.90
2022-10-29T08:37:59.143Z,14.00
2022-10-29T08:40:32.813Z,14.20
2022-10-29T08:43:33.004Z,14.30
2022-10-29T08:46:01.557Z,14.40
2022-10-29T08:48:37.884Z,14.50
2022-10-29T08:51:14.651Z,14.70
2022-10-29T08:53:45.531Z,14.90
2022-10-29T08:56:23.144Z,15.00
2022-10-29T08:58:57.794Z,15.20
2022-10-29T09:01:26.176Z,15.20
2022-10-29T09:03:56.200Z,15.30
2022-10-29T09:06:32.554Z,15.30
2022-10-29T09:09:18.135Z,15.30
2022-10-29T09:12:34.096Z,15.30
2022-10-29T09:15:19.368Z,15.40
2022-10-29T09:18:07.844Z,15.50
2022-10-29T09:20:47.494Z,15.60
2022-10-29T09:23:23.148Z,15.80
2022-10-29T09:25:57.127Z,16.00
2022-10-29T09:28:33.823Z,16.10
2022-10-29T09:31:10.362Z,16.20
2022-10-29T09:33:39.415Z,16.20
2022-10-29T09:36:17.246Z,16.30
2022-10-29T09:38:52.438Z,16.40
2022-10-29T09:41:23.015Z,16.50
2022-10-29T09:43:58.638Z,16.70
2022-10-29T09:46:36.382Z,16.80
2022-10-29T09:49:13.906Z,17.00
2022-10-29T09:51:47.243Z,17.10
2022-10-29T09:54:15.529Z,17.30
2022-10-29T09:56:45.385Z,17.50
2022-10-29T09:59:21.928Z,17.60
2022-10-29T10:01:50.455Z,17.80
2022-10-29T10:04:24.672Z,17.90
2022-10-29T10:07:06.348Z,18.20
2022-10-29T10:09:53.731Z,18.10
2022-10-29T10:12:25.060Z,18.30
2022-10-29T10:15:07.620Z,18.30
2022-10-29T10:17:58.650Z,18.40
2022-10-29T10:20:36.649Z,18.40
2022-10-29T10:23:29.333Z,18.50
2022-10-29T10:26:02.370Z,18.60
2022-10-29T10:28:34.341Z,18.60
2022-10-29T10:31:14.190Z,18.80
2022-10-29T10:33:50.331Z,18.80
2022-10-29T10:36:21.660Z,18.80
2022-10-29T10:38:53.799Z,19.10
2022-10-29T10:41:27.888Z,19.30
2022-10-29T10:44:00.262Z,19.40
2022-10-29T10:46:32.500Z,19.50
2022-10-29T10:49:04.234Z,19.80
2022-10-29T10:51:34.555Z,20.00
2022-10-29T10:54:11.842Z,20.20
2022-10-29T10:56:54.860Z,20.40
2022-10-29T10:59:23.682Z,20.50
2022-10-29T11:01:53.146Z,20.60
2022-10-29T11:04:29.382Z,20.80
2022-10-29T11:07:02.502Z,20.90
2022-10-29T11:09:38.462Z,21.00
2022-10-29T11:12:11.454Z,21.10
2022-10-29T11:14:45.883Z,21.20
2022-10-29T11:17:27.416Z,21.20
2022-10-29T11:20:00.355Z,21.20
2022-10-29T11:22:34.006Z,21.40
2022-10-29T11:25:14.952Z,21.70
2022-10-29T11:27:51.404Z,21.70
2022-10-29T11:30:20.404Z,21.70
2022-10-29T11:32:58.905Z,21.90
2022-10-29T11:35:37.723Z,22.00
2022-10-29T11:38:12.309Z,22.10
2022-10-29T11:40:49.046Z,21.90
2022-10-29T11:43:20.544Z,22.10
2022-10-29T11:45:59.111Z,22.10
2022-10-29T11:48:39.297Z,22.10
2022-10-29T11:51:18.761Z,22.10
2022-10-29T11:54:02.554Z,22.10
2022-10-29T11:56:48.762Z,22.20
2022-10-29T11:59:27.849Z,22.20
2022-10-29T12:02:06.940Z,22.10
2022-10-29T12:04:38.740Z,22.10
2022-10-29T12:07:23.602Z,22.20
2022-10-29T12:10:24.268Z,22.10
2022-10-29T12:13:01.591Z,22.10
2022-10-29T12:15:37.169Z,22.20
2022-10-29T12:18:15.414Z,22.20
2022-10-29T12:20:48.471Z,22.30
2022-10-29T12:23:27.503Z,22.40
2022-10-29T12:26:06.312Z,22.50
2022-10-29T12:28:46.212Z,22.50
2022-10-29T12:31:38.956Z,22.60
2022-10-29T12:34:15.654Z,22.70
2022-10-29T12:36:53.391Z,22.60
2022-10-29T12:39:30.249Z,22.80
2022-10-29T12:42:02.615Z,23.00
2022-10-29T12:44:45.124Z,23.20
2022-10-29T12:47:17.761Z,23.40
2022-10-29T12:49:54.399Z,23.50
2022-10-29T12:52:30.087Z,23.90
2022-10-29T12:55:00.894Z,24.00
2022-10-29T12:57:33.852Z,24.60
2022-10-29T13:00:33.924Z,25.50
2022-10-29T13:03:02.686Z,26.50
2022-10-29T13:05:40.154Z,27.20
2022-10-29T13:08:22.120Z,27.80
2022-10-29T13:10:52.981Z,28.10
2022-10-29T13:13:37.164Z,28.20
2022-10-29T13:16:13.825Z,28.60
2022-10-29T13:18:57.782Z,29.00
2022-10-29T13:22:00.756Z,29.10
2022-10-29T13:24:29.797Z,28.70
2022-10-29T13:27:01.193Z,28.00
2022-10-29T13:29:50.483Z,27.10
2022-10-29T13:32:34.110Z,26.00
2022-10-29T13:35:03.590Z,25.20
2022-10-29T13:37:50.759Z,24.70
2022-10-29T13:40:42.496Z,24.40
2022-10-29T13:43:16.658Z,24.10
2022-10-29T13:45:49.815Z,23.90
2022-10-29T13:48:25.853Z,23.70
2022-10-29T13:50:55.852Z,23.70
2022-10-29T13:53:37.992Z,23.60
2022-10-29T13:56:11.162Z,23.50
2022-10-29T13:58:44.014Z,23.40
2022-10-29T14:01:17.561Z,23.30
2022-10-29T14:03:58.365Z,23.30
2022-10-29T14:06:30.552Z,23.30
2022-10-29T14:09:12.007Z,23.10
2022-10-29T14:11:45.114Z,23.10
2022-10-29T14:14:34.136Z,23.00
2022-10-29T14:17:12.531Z,23.00
2022-10-29T14:19:45.694Z,22.80
2022-10-29T14:22:22.778Z,22.70
2022-10-29T14:24:50.912Z,22.70
2022-10-29T14:27:20.296Z,22.60
2022-10-29T14:29:50.487Z,22.40
2022-10-29T14:32:22.623Z,22.30
2022-10-29T14:34:51.646Z,22.20
2022-10-29T14:37:27.910Z,22.10
2022-10-29T14:39:59.364Z,22.10
2022-10-29T14:42:32.705Z,22.00
2022-10-29T14:45:04.181Z,22.00
2022-10-29T14:47:34.321Z,22.10
2022-10-29T14:50:05.801Z,21.90
2022-10-29T14:52:36.399Z,21.90
2022-10-29T14:55:08.787Z,21.80
2022-10-29T14:57:46.908Z,21.70
2022-10-29T15:00:24.888Z,21.60
2022-10-29T15:02:55.741Z,21.40
2022-10-29T15:05:27.072Z,21.30
2022-10-29T15:08:06.280Z,21.00
2022-10-29T15:10:46.063Z,20.70
2022-10-29T15:13:32.572Z,20.60
2022-10-29T15:16:03.188Z,20.40
2022-10-29T15:18:32.753Z,20.30
2022-10-29T15:21:01.160Z,20.10
2022-10-29T15:23:31.010Z,19.90
2022-10-29T15:26:02.730Z,19.70
2022-10-29T15:28:38.195Z,19.60
2022-10-29T15:31:07.057Z,19.40
2022-10-29T15:33:38.035Z,19.30
2022-10-29T15:36:09.575Z,19.20
2022-10-29T15:39:20.150Z,19.10
2022-10-29T15:41:50.482Z,19.00
2022-10-29T15:44:35.275Z,18.80
2022-10-29T15:47:19.196Z,18.70
2022-10-29T15:49:47.212Z,18.50
2022-10-29T15:52:19.169Z,18.40
2022-10-29T15:54:47.906Z,18.20
2022-10-29T15:57:17.673Z,18.10
2022-10-29T15:59:47.122Z,18.00
2022-10-29T16:02:18.233Z,17.90
2022-10-29T16:04:46.380Z,17.80
2022-10-29T16:07:14.802Z,17.70
2022-10-29T16:09:47.715Z,17.60
2022-10-29T16:12:15.835Z,17.50
2022-10-29T16:14:43.882Z,17.40
2022-10-29T16:17:16.018Z,17.40
2022-10-29T16:19:44.417Z,17.20
2022-10-29T16:22:15.492Z,17.10
2022-10-29T16:24:43.524Z,17.00
2022-10-29T16:27:15.692Z,16.90
2022-10-29T16:29:44.000Z,16.80
2022-10-29T16:32:16.237Z,16.70
2022-10-29T16:34:44.838Z,16.60
2022-10-29T16:37:14.761Z,16.60
2022-10-29T16:39:43.362Z,16.50
2022-10-29T16:42:30.687Z,16.50
2022-10-29T16:44:58.752Z,16.40
2022-10-29T16:47:28.429Z,16.30
2022-10-29T16:49:56.545Z,16.20
2022-10-29T16:52:28.870Z,16.00
2022-10-29T16:54:57.721Z,15.90
2022-10-29T16:57:25.859Z,15.90
2022-10-29T16:59:53.891Z,15.80
2022-10-29T17:02:21.885Z,15.70
2022-10-29T17:04:51.277Z,15.70
2022-10-29T17:07:19.271Z,15.70
2022-10-29T17:09:47.247Z,15.60
2022-10-29T17:12:15.719Z,15.60
2022-10-29T17:14:43.710Z,15.60
2022-10-29T17:17:11.700Z,15.50
2022-10-29T17:19:39.678Z,15.50
2022-10-29T17:22:10.545Z,15.40
2022-10-29T17:24:38.656Z,15.40
2022-10-29T17:27:06.716Z,15.30
2022-10-29T17:29:36.405Z,15.20
2022-10-29T17:32:07.546Z,15.20
2022-10-29T17:34:36.113Z,15.10
2022-10-29T17:37:04.261Z,15.10
2022-10-29T17:39:33.615Z,15.00
2022-10-29T17:42:01.742Z,15.00
2022-10-29T17:44:30.726Z,14.90
2022-10-29T17:46:58.845Z,14.80
2022-10-29T17:49:27.224Z,14.80
2022-10-29T17:51:56.248Z,14.70
2022-10-29T17:54:24.293Z,14.60
2022-10-29T17:56:53.659Z,14.60
2022-10-29T17:59:21.702Z,14.50
2022-10-29T18:01:49.880Z,14.40
2022-10-29T18:04:18.043Z,14.40
2022-10-29T18:06:46.051Z,14.30
2022-10-29T18:09:17.107Z,14.30
2022-10-29T18:11:50.044Z,14.20
2022-10-29T18:14:19.472Z,14.20
2022-10-29T18:16:47.976Z,14.10
2022-10-29T18:19:16.013Z,14.00
2022-10-29T18:21:44.112Z,13.90
2022-10-29T18:24:12.442Z,13.80
2022-10-29T18:26:40.423Z,13.80
2022-10-29T18:29:09.779Z,13.70
2022-10-29T18:31:42.102Z,13.60
2022-10-29T18:34:10.742Z,13.60
2022-10-29T18:36:38.872Z,13.50
2022-10-29T18:39:07.215Z,13.50
2022-10-29T18:41:36.042Z,13.40
2022-10-29T18:44:04.208Z,13.30
2022-10-29T18:46:32.247Z,13.30
2022-10-29T18:49:02.074Z,13.20
2022-10-29T18:51:31.698Z,13.10
2022-10-29T18:54:00.109Z,13.00
2022-10-29T18:56:29.384Z,13.00
2022-10-29T18:58:58.549Z,13.00
2022-10-29T19:01:28.506Z,13.00
2022-10-29T19:03:57.977Z,13.00
2022-10-29T19:06:29.620Z,12.90
2022-10-29T19:08:59.924Z,12.80
2022-10-29T19:11:28.621Z,12.80
2022-10-29T19:13:58.548Z,12.80
2022-10-29T19:16:27.073Z,12.80
2022-10-29T19:18:55.699Z,12.70
2022-10-29T19:21:23.834Z,12.70
2022-10-29T19:23:56.079Z,12.70
2022-10-29T19:26:25.215Z,12.60
2022-10-29T19:28:53.371Z,12.60
2022-10-29T19:31:23.104Z,12.60
2022-10-29T19:33:52.704Z,12.60
2022-10-29T19:36:22.015Z,12.60
2022-10-29T19:38:50.209Z,12.50
2022-10-29T19:41:19.843Z,12.50
2022-10-29T19:43:48.135Z,12.40
2022-10-29T19:46:17.818Z,12.40
2022-10-29T19:48:50.575Z,12.40
2022-10-29T19:51:19.418Z,12.30
2022-10-29T19:53:47.444Z,12.30
2022-10-29T19:56:17.047Z,12.30
2022-10-29T19:58:46.791Z,12.20
2022-10-29T20:01:17.029Z,12.20
2022-10-29T20:03:45.794Z,12.20
2022-10-29T20:06:14.483Z,12.20
2022-10-29T20:08:42.570Z,12.10
2022-10-29T20:11:10.568Z,12.10
2022-10-29T20:13:39.972Z,12.10
2022-10-29T20:16:11.128Z,12.10
2022-10-29T20:18:39.219Z,12.00
2022-10-29T20:21:08.301Z,12.00
2022-10-29T20:23:36.539Z,12.00
2022-10-29T20:26:04.947Z,11.90
2022-10-29T20:28:33.010Z,11.90
2022-10-29T20:31:31.685Z,11.90
2022-10-29T20:34:02.200Z,11.90
2022-10-29T20:36:32.129Z,11.80
2022-10-29T20:39:00.626Z,12.00
2022-10-29T20:41:29.310Z,11.90
2022-10-29T20:43:59.271Z,11.90
2022-10-29T20:46:29.088Z,11.80
2022-10-29T20:48:57.266Z,11.80
2022-10-29T20:51:26.237Z,11.70
2022-10-29T20:53:55.294Z,11.70
2022-10-29T20:56:25.929Z,11.70
2022-10-29T20:58:54.115Z,11.70
2022-10-29T21:01:24.047Z,11.70
2022-10-29T21:03:53.882Z,11.70
2022-10-29T21:06:22.715Z,11.60
2022-10-29T21:08:52.151Z,11.60
2022-10-29T21:11:21.280Z,11.50
2022-10-29T21:13:49.626Z,11.50
2022-10-29T21:16:20.016Z,11.40
2022-10-29T21:18:49.992Z,11.40
2022-10-29T21:21:20.071Z,11.40
2022-10-29T21:23:48.525Z,11.30
2022-10-29T21:26:18.762Z,11.30
2022-10-29T21:28:48.290Z,11.40
2022-10-29T21:31:16.800Z,11.20
2022-10-29T21:33:45.061Z,11.20
2022-10-29T21:36:14.309Z,11.20
2022-10-29T21:38:43.894Z,11.10
2022-10-29T21:41:12.212Z,11.20
2022-10-29T21:43:40.873Z,11.00
2022-10-29T21:46:09.379Z,11.10
2022-10-29T21:48:37.504Z,11.00
2022-10-29T21:51:08.737Z,11.00
2022-10-29T21:53:36.953Z,10.80
2022-10-29T21:56:08.395Z,10.80
2022-10-29T21:58:36.472Z,10.80
2022-10-29T22:01:06.822Z,10.80
2022-10-29T22:03:35.881Z,10.70
2022-10-29T22:06:05.822Z,10.70
2022-10-29T22:08:34.896Z,10.60
2022-10-29T22:11:03.670Z,10.60
2022-10-29T22:13:34.000Z,10.60
2022-10-29T22:16:02.534Z,10.70
2022-10-29T22:18:31.582Z,10.70
2022-10-29T22:21:14.856Z,10.70
2022-10-29T22:23:44.075Z,10.70
2022-10-29T22:26:12.276Z,10.70
2022-10-29T22:28:41.877Z,10.70
2022-10-29T22:31:10.303Z,10.70
2022-10-29T22:33:38.462Z,10.70
2022-10-29T22:36:08.583Z,10.80
2022-10-29T22:38:36.912Z,10.70
2022-10-29T22:41:06.556Z,10.80
2022-10-29T22:43:34.672Z,10.80
2022-10-29T22:46:05.255Z,10.80
2022-10-29T22:48:33.600Z,10.80
2022-10-29T22:51:03.254Z,10.90
2022-10-29T22:53:31.448Z,10.90
2022-10-29T22:55:59.803Z,10.90
2022-10-29T22:58:28.033Z,11.00
2022-10-29T23:01:05.750Z,11.00
2022-10-29T23:03:34.727Z,11.00
2022-10-29T23:06:04.731Z,11.00
2022-10-29T23:08:33.354Z,11.00
2022-10-29T23:11:05.594Z,11.00
2022-10-29T23:13:33.711Z,11.00
2022-10-29T23:16:03.195Z,11.10
2022-10-29T23:18:31.251Z,11.10
2022-10-29T23:21:04.394Z,11.10
2022-10-29T23:23:33.416Z,11.10
2022-10-29T23:26:03.307Z,11.10
2022-10-29T23:28:32.874Z,11.10
2022-10-29T23:31:03.906Z,11.10
2022-10-29T23:33:33.569Z,11.10
2022-10-29T23:36:05.400Z,11.10
2022-10-29T23:38:34.100Z,11.10
2022-10-29T23:41:02.754Z,11.10
2022-10-29T23:43:31.412Z,11.10
2022-10-29T23:45:59.544Z,11.10
2022-10-29T23:48:29.204Z,11.10
2022-10-29T23:50:57.604Z,11.10
2022-10-29T23:53:26.074Z,11.10
2022-10-29T23:55:54.107Z,11.10
2022-10-29T23:58:22.103Z,11.10
